PWSweather.com
Personal Weather Stations
Station Observations
WD4JKH
Forsyth, GA 31029

Forsyth, GA 31029

Lat: 33.033225, Lon: -83.927995

Elevation: 709

Station Type: Davis Vantage VUE

High Low Average
Temperature 53.2°F11.8°C 30.0°F-1.1°C 39.5°F4.2°C
Dew Point 25.9°F-3.4°C 19.0°F-7.2°C 22.3°F-5.4°C
Winds 3.6 mph 5.8 kmh Calm Calm 1.0 mph SW1.6 kmh SW
Wind Gusts 8.0 mph12.9 kmh -- 3.0 mph4.8 kmh
Humidity 66% 33% 52%
Pressure 30.48 in1032.2 mb 30.36 in1028.1 mb -
Precipitation 0.00 in0.0 mm - -
Hour Temp Dew Point Humidity Winds Wind Gusts Pressure Precip Precip Rate Daily Precip Total
12:01 AM 34.6°F1.4°C 21.4°F-5.9°C 58% 1.8 mph W2.9 kmh W 5.0 mph8.0 kmh 30.36 in1028.1 mb 0.00 in0.0 mm 0.00 in0.0 mm 0.00 in0.0 mm
12:06 AM 34.5°F1.4°C 21.3°F-5.9°C 58% 1.8 mph WNW2.9 kmh WNW 4.0 mph6.4 kmh 30.36 in1028.1 mb 0.00 in0.0 mm 0.00 in0.0 mm 0.00 in0.0 mm
12:11 AM 34.4°F1.3°C 21.2°F-6.0°C 58% 1.1 mph W1.8 kmh W 4.0 mph6.4 kmh 30.37 in1028.4 mb 0.00 in0.0 mm 0.00 in0.0 mm 0.00 in0.0 mm
12:16 AM 34.3°F1.3°C 21.1°F-6.1°C 58% 1.1 mph W1.8 kmh W 4.0 mph6.4 kmh 30.37 in1028.4 mb 0.00 in0.0 mm 0.00 in0.0 mm 0.00 in0.0 mm
12:21 AM 34.2°F1.2°C 20.9°F-6.2°C 58% 1.2 mph W1.9 kmh W 4.0 mph6.4 kmh 30.37 in1028.4 mb 0.00 in0.0 mm 0.00 in0.0 mm 0.00 in0.0 mm
12:26 AM 34.2°F1.2°C 21.4°F-5.9°C 59% 2.4 mph WNW3.9 kmh WNW 4.0 mph6.4 kmh 30.37 in1028.4 mb 0.00 in0.0 mm 0.00 in0.0 mm 0.00 in0.0 mm
12:31 AM 34.1°F1.2°C 21.3°F-5.9°C 59% 1.7 mph W2.7 kmh W 4.0 mph6.4 kmh 30.37 in1028.4 mb 0.00 in0.0 mm 0.00 in0.0 mm 0.00 in0.0 mm
12:36 AM 34.1°F1.2°C 21.3°F-5.9°C 59% 2.1 mph WNW3.4 kmh WNW 4.0 mph6.4 kmh 30.37 in1028.4 mb 0.00 in0.0 mm 0.00 in0.0 mm 0.00 in0.0 mm
12:41 AM 34.1°F1.2°C 21.3°F-5.9°C 59% 1.7 mph WNW2.7 kmh WNW 4.0 mph6.4 kmh 30.37 in1028.4 mb 0.00 in0.0 mm 0.00 in0.0 mm 0.00 in0.0 mm
12:46 AM 34.1°F1.2°C 21.3°F-5.9°C 59% 1.8 mph WNW2.9 kmh WNW 4.0 mph6.4 kmh 30.37 in1028.4 mb 0.00 in0.0 mm 0.00 in0.0 mm 0.00 in0.0 mm
12:51 AM 34.1°F1.2°C 21.3°F-5.9°C 59% 1.8 mph WNW2.9 kmh WNW 4.0 mph6.4 kmh 30.37 in1028.4 mb 0.00 in0.0 mm 0.00 in0.0 mm 0.00 in0.0 mm
12:56 AM 34.0°F1.1°C 21.2°F-6.0°C 59% 1.2 mph WNW1.9 kmh WNW 4.0 mph6.4 kmh 30.36 in1028.1 mb 0.00 in0.0 mm 0.00 in0.0 mm 0.00 in0.0 mm
01:01 AM 34.0°F1.1°C 21.2°F-6.0°C 59% 1.7 mph NW2.7 kmh NW 3.0 mph4.8 kmh 30.37 in1028.4 mb 0.00 in0.0 mm 0.00 in0.0 mm 0.00 in0.0 mm
01:06 AM 34.0°F1.1°C 21.2°F-6.0°C 59% 1.5 mph WNW2.4 kmh WNW 3.0 mph4.8 kmh 30.37 in1028.4 mb 0.00 in0.0 mm 0.00 in0.0 mm 0.00 in0.0 mm
01:11 AM 33.9°F1.1°C 21.5°F-5.8°C 60% 1.6 mph NW2.6 kmh NW 3.0 mph4.8 kmh 30.37 in1028.4 mb 0.00 in0.0 mm 0.00 in0.0 mm 0.00 in0.0 mm
01:17 AM 33.9°F1.1°C 21.5°F-5.8°C 60% 2.6 mph NW4.2 kmh NW 5.0 mph8.0 kmh 30.38 in1028.8 mb 0.00 in0.0 mm 0.00 in0.0 mm 0.00 in0.0 mm
01:22 AM 33.8°F1.0°C 21.4°F-5.9°C 60% 1.9 mph NW3.1 kmh NW 5.0 mph8.0 kmh 30.38 in1028.8 mb 0.00 in0.0 mm 0.00 in0.0 mm 0.00 in0.0 mm
01:27 AM 33.7°F0.9°C 21.3°F-5.9°C 60% 1.3 mph NW2.1 kmh NW 5.0 mph8.0 kmh 30.38 in1028.8 mb 0.00 in0.0 mm 0.00 in0.0 mm 0.00 in0.0 mm
01:32 AM 33.5°F0.8°C 21.5°F-5.8°C 61% 1.6 mph NW2.6 kmh NW 5.0 mph8.0 kmh 30.38 in1028.8 mb 0.00 in0.0 mm 0.00 in0.0 mm 0.00 in0.0 mm
01:37 AM 33.3°F0.7°C 21.7°F-5.7°C 62% 1.9 mph NW3.1 kmh NW 5.0 mph8.0 kmh 30.38 in1028.8 mb 0.00 in0.0 mm 0.00 in0.0 mm 0.00 in0.0 mm
01:42 AM 33.2°F0.7°C 21.6°F-5.8°C 62% 2.5 mph NW4.0 kmh NW 6.0 mph9.7 kmh 30.38 in1028.8 mb 0.00 in0.0 mm 0.00 in0.0 mm 0.00 in0.0 mm
01:47 AM 33.1°F0.6°C 21.5°F-5.8°C 62% 2.0 mph NW3.2 kmh NW 6.0 mph9.7 kmh 30.38 in1028.8 mb 0.00 in0.0 mm 0.00 in0.0 mm 0.00 in0.0 mm
01:52 AM 33.0°F0.6°C 21.5°F-5.8°C 62% 1.5 mph NW2.4 kmh NW 6.0 mph9.7 kmh 30.38 in1028.8 mb 0.00 in0.0 mm 0.00 in0.0 mm 0.00 in0.0 mm
01:57 AM 32.9°F0.5°C 21.7°F-5.7°C 63% 1.6 mph NW2.6 kmh NW 6.0 mph9.7 kmh 30.38 in1028.8 mb 0.00 in0.0 mm 0.00 in0.0 mm 0.00 in0.0 mm
02:02 AM 32.8°F0.4°C 21.6°F-5.8°C 63% 1.3 mph NW2.1 kmh NW 5.0 mph8.0 kmh 30.38 in1028.8 mb 0.00 in0.0 mm 0.00 in0.0 mm 0.00 in0.0 mm
02:06 AM 32.7°F0.4°C 21.6°F-5.8°C 63% 1.0 mph NW1.6 kmh NW 3.0 mph4.8 kmh 30.38 in1028.8 mb 0.00 in0.0 mm 0.00 in0.0 mm 0.00 in0.0 mm
02:12 AM 32.6°F0.3°C 21.5°F-5.8°C 63% 1.7 mph NW2.7 kmh NW 3.0 mph4.8 kmh 30.38 in1028.8 mb 0.00 in0.0 mm 0.00 in0.0 mm 0.00 in0.0 mm
02:17 AM 32.5°F0.3°C 21.3°F-5.9°C 63% 1.2 mph NW1.9 kmh NW 3.0 mph4.8 kmh 30.38 in1028.8 mb 0.00 in0.0 mm 0.00 in0.0 mm 0.00 in0.0 mm
02:22 AM 32.4°F0.2°C 21.6°F-5.8°C 64% 1.3 mph NW2.1 kmh NW 3.0 mph4.8 kmh 30.38 in1028.8 mb 0.00 in0.0 mm 0.00 in0.0 mm 0.00 in0.0 mm
02:27 AM 32.3°F0.2°C 21.5°F-5.8°C 64% 1.3 mph NW2.1 kmh NW 4.0 mph6.4 kmh 30.38 in1028.8 mb 0.00 in0.0 mm 0.00 in0.0 mm 0.00 in0.0 mm
02:32 AM 32.2°F0.1°C 21.4°F-5.9°C 64% 1.3 mph NW2.1 kmh NW 4.0 mph6.4 kmh 30.38 in1028.8 mb 0.00 in0.0 mm 0.00 in0.0 mm 0.00 in0.0 mm
02:37 AM 32.1°F0.1°C 21.4°F-5.9°C 64% 1.4 mph NW2.3 kmh NW 4.0 mph6.4 kmh 30.38 in1028.8 mb 0.00 in0.0 mm 0.00 in0.0 mm 0.00 in0.0 mm
02:42 AM 32.1°F0.1°C 21.4°F-5.9°C 64% 1.1 mph NW1.8 kmh NW 3.0 mph4.8 kmh 30.38 in1028.8 mb 0.00 in0.0 mm 0.00 in0.0 mm 0.00 in0.0 mm
02:47 AM 32.0°F0.0°C 21.3°F-5.9°C 64% 1.0 mph WNW1.6 kmh WNW 3.0 mph4.8 kmh 30.38 in1028.8 mb 0.00 in0.0 mm 0.00 in0.0 mm 0.00 in0.0 mm
02:52 AM 31.9°F-0.1°C 21.5°F-5.8°C 65% 1.2 mph NW1.9 kmh NW 4.0 mph6.4 kmh 30.38 in1028.8 mb 0.00 in0.0 mm 0.00 in0.0 mm 0.00 in0.0 mm
02:57 AM 31.8°F-0.1°C 21.4°F-5.9°C 65% 1.0 mph NW1.6 kmh NW 4.0 mph6.4 kmh 30.38 in1028.8 mb 0.00 in0.0 mm 0.00 in0.0 mm 0.00 in0.0 mm
03:02 AM 31.8°F-0.1°C 21.4°F-5.9°C 65% 1.2 mph WNW1.9 kmh WNW 4.0 mph6.4 kmh 30.38 in1028.8 mb 0.00 in0.0 mm 0.00 in0.0 mm 0.00 in0.0 mm
03:07 AM 31.7°F-0.2°C 21.3°F-5.9°C 65% 1.7 mph NW2.7 kmh NW 4.0 mph6.4 kmh 30.38 in1028.8 mb 0.00 in0.0 mm 0.00 in0.0 mm 0.00 in0.0 mm
03:12 AM 31.7°F-0.2°C 21.3°F-5.9°C 65% 1.1 mph NW1.8 kmh NW 3.0 mph4.8 kmh 30.38 in1028.8 mb 0.00 in0.0 mm 0.00 in0.0 mm 0.00 in0.0 mm
03:17 AM 31.7°F-0.2°C 21.0°F-6.1°C 64% 1.0 mph WNW1.6 kmh WNW 3.0 mph4.8 kmh 30.38 in1028.8 mb 0.00 in0.0 mm 0.00 in0.0 mm 0.00 in0.0 mm
03:22 AM 31.7°F-0.2°C 21.3°F-5.9°C 65% 1.1 mph WNW1.8 kmh WNW 2.0 mph3.2 kmh 30.38 in1028.8 mb 0.00 in0.0 mm 0.00 in0.0 mm 0.00 in0.0 mm
03:27 AM 31.6°F-0.2°C 21.2°F-6.0°C 65% 1.0 mph WNW1.6 kmh WNW 3.0 mph4.8 kmh 30.38 in1028.8 mb 0.00 in0.0 mm 0.00 in0.0 mm 0.00 in0.0 mm
03:32 AM 31.5°F-0.3°C 21.2°F-6.0°C 65% 1.2 mph WNW1.9 kmh WNW 3.0 mph4.8 kmh 30.38 in1028.8 mb 0.00 in0.0 mm 0.00 in0.0 mm 0.00 in0.0 mm
03:37 AM 31.5°F-0.3°C 21.2°F-6.0°C 65% 1.0 mph WNW1.6 kmh WNW 3.0 mph4.8 kmh 30.38 in1028.8 mb 0.00 in0.0 mm 0.00 in0.0 mm 0.00 in0.0 mm
03:42 AM 31.4°F-0.3°C 21.1°F-6.1°C 65% 1.0 mph WNW1.6 kmh WNW 3.0 mph4.8 kmh 30.38 in1028.8 mb 0.00 in0.0 mm 0.00 in0.0 mm 0.00 in0.0 mm
03:47 AM 31.3°F-0.4°C 21.0°F-6.1°C 65% 1.1 mph WNW1.8 kmh WNW 2.0 mph3.2 kmh 30.38 in1028.8 mb 0.00 in0.0 mm 0.00 in0.0 mm 0.00 in0.0 mm
03:52 AM 31.2°F-0.4°C 20.8°F-6.2°C 65% 1.0 mph WNW1.6 kmh WNW 2.0 mph3.2 kmh 30.38 in1028.8 mb 0.00 in0.0 mm 0.00 in0.0 mm 0.00 in0.0 mm
03:57 AM 31.1°F-0.5°C 20.8°F-6.2°C 65% 1.0 mph WNW1.6 kmh WNW 2.0 mph3.2 kmh 30.38 in1028.8 mb 0.00 in0.0 mm 0.00 in0.0 mm 0.00 in0.0 mm
04:02 AM 31.0°F-0.6°C 20.7°F-6.3°C 65% 1.0 mph WNW1.6 kmh WNW 2.0 mph3.2 kmh 30.37 in1028.4 mb 0.00 in0.0 mm 0.00 in0.0 mm 0.00 in0.0 mm
04:07 AM 31.0°F-0.6°C 20.7°F-6.3°C 65% 1.2 mph WNW1.9 kmh WNW 2.0 mph3.2 kmh 30.37 in1028.4 mb 0.00 in0.0 mm 0.00 in0.0 mm 0.00 in0.0 mm
04:12 AM 31.0°F-0.6°C 20.6°F-6.3°C 65% 1.0 mph WNW1.6 kmh WNW 2.0 mph3.2 kmh 30.37 in1028.4 mb 0.00 in0.0 mm 0.00 in0.0 mm 0.00 in0.0 mm
04:17 AM 30.9°F-0.6°C 20.6°F-6.3°C 65% Calm Calm 2.0 mph3.2 kmh 30.37 in1028.4 mb 0.00 in0.0 mm 0.00 in0.0 mm 0.00 in0.0 mm
04:22 AM 30.9°F-0.6°C 20.5°F-6.4°C 65% Calm Calm 2.0 mph3.2 kmh 30.37 in1028.4 mb 0.00 in0.0 mm 0.00 in0.0 mm 0.00 in0.0 mm
04:27 AM 30.8°F-0.7°C 20.5°F-6.4°C 65% Calm Calm 1.0 mph1.6 kmh 30.37 in1028.4 mb 0.00 in0.0 mm 0.00 in0.0 mm 0.00 in0.0 mm
04:32 AM 30.8°F-0.7°C 20.5°F-6.4°C 65% Calm Calm 1.0 mph1.6 kmh 30.37 in1028.4 mb 0.00 in0.0 mm 0.00 in0.0 mm 0.00 in0.0 mm
04:37 AM 30.7°F-0.7°C 20.3°F-6.5°C 65% Calm Calm 1.0 mph1.6 kmh 30.37 in1028.4 mb 0.00 in0.0 mm 0.00 in0.0 mm 0.00 in0.0 mm
04:42 AM 30.7°F-0.7°C 20.4°F-6.4°C 65% Calm Calm 1.0 mph1.6 kmh 30.37 in1028.4 mb 0.00 in0.0 mm 0.00 in0.0 mm 0.00 in0.0 mm
04:47 AM 30.7°F-0.7°C 20.3°F-6.5°C 65% 1.0 mph WNW1.6 kmh WNW 1.0 mph1.6 kmh 30.37 in1028.4 mb 0.00 in0.0 mm 0.00 in0.0 mm 0.00 in0.0 mm
04:52 AM 30.8°F-0.7°C 20.4°F-6.4°C 65% Calm Calm 1.0 mph1.6 kmh 30.37 in1028.4 mb 0.00 in0.0 mm 0.00 in0.0 mm 0.00 in0.0 mm
04:57 AM 30.7°F-0.7°C 20.4°F-6.4°C 65% Calm Calm 1.0 mph1.6 kmh 30.37 in1028.4 mb 0.00 in0.0 mm 0.00 in0.0 mm 0.00 in0.0 mm
05:02 AM 30.7°F-0.7°C 20.3°F-6.5°C 65% Calm Calm 1.0 mph1.6 kmh 30.37 in1028.4 mb 0.00 in0.0 mm 0.00 in0.0 mm 0.00 in0.0 mm
05:07 AM 30.7°F-0.7°C 20.3°F-6.5°C 65% Calm Calm 1.0 mph1.6 kmh 30.37 in1028.4 mb 0.00 in0.0 mm 0.00 in0.0 mm 0.00 in0.0 mm
05:12 AM 30.7°F-0.7°C 20.4°F-6.4°C 65% Calm Calm 1.0 mph1.6 kmh 30.37 in1028.4 mb 0.00 in0.0 mm 0.00 in0.0 mm 0.00 in0.0 mm
05:17 AM 30.7°F-0.7°C 20.3°F-6.5°C 65% 1.0 mph WNW1.6 kmh WNW 1.0 mph1.6 kmh 30.38 in1028.8 mb 0.00 in0.0 mm 0.00 in0.0 mm 0.00 in0.0 mm
05:22 AM 30.7°F-0.7°C 20.4°F-6.4°C 65% 1.0 mph WNW1.6 kmh WNW 1.0 mph1.6 kmh 30.38 in1028.8 mb 0.00 in0.0 mm 0.00 in0.0 mm 0.00 in0.0 mm
05:27 AM 30.6°F-0.8°C 20.3°F-6.5°C 65% Calm Calm 1.0 mph1.6 kmh 30.38 in1028.8 mb 0.00 in0.0 mm 0.00 in0.0 mm 0.00 in0.0 mm
05:32 AM 30.6°F-0.8°C 20.3°F-6.5°C 65% 1.0 mph WNW1.6 kmh WNW 1.0 mph1.6 kmh 30.38 in1028.8 mb 0.00 in0.0 mm 0.00 in0.0 mm 0.00 in0.0 mm
05:37 AM 30.6°F-0.8°C 20.2°F-6.6°C 65% 1.0 mph WNW1.6 kmh WNW 1.0 mph1.6 kmh 30.38 in1028.8 mb 0.00 in0.0 mm 0.00 in0.0 mm 0.00 in0.0 mm
05:42 AM 30.6°F-0.8°C 20.2°F-6.6°C 65% Calm Calm 1.0 mph1.6 kmh 30.38 in1028.8 mb 0.00 in0.0 mm 0.00 in0.0 mm 0.00 in0.0 mm
05:47 AM 30.6°F-0.8°C 20.3°F-6.5°C 65% 1.0 mph WNW1.6 kmh WNW 1.0 mph1.6 kmh 30.38 in1028.8 mb 0.00 in0.0 mm 0.00 in0.0 mm 0.00 in0.0 mm
05:52 AM 30.6°F-0.8°C 20.2°F-6.6°C 65% 1.0 mph WNW1.6 kmh WNW 1.0 mph1.6 kmh 30.38 in1028.8 mb 0.00 in0.0 mm 0.00 in0.0 mm 0.00 in0.0 mm
05:57 AM 30.6°F-0.8°C 20.2°F-6.6°C 65% Calm Calm 1.0 mph1.6 kmh 30.38 in1028.8 mb 0.00 in0.0 mm 0.00 in0.0 mm 0.00 in0.0 mm
06:02 AM 30.5°F-0.8°C 20.2°F-6.6°C 65% 1.0 mph WNW1.6 kmh WNW 1.0 mph1.6 kmh 30.39 in1029.1 mb 0.00 in0.0 mm 0.00 in0.0 mm 0.00 in0.0 mm
06:07 AM 30.4°F-0.9°C 20.1°F-6.6°C 65% Calm Calm 1.0 mph1.6 kmh 30.39 in1029.1 mb 0.00 in0.0 mm 0.00 in0.0 mm 0.00 in0.0 mm
06:12 AM 30.5°F-0.8°C 20.2°F-6.6°C 65% Calm Calm 1.0 mph1.6 kmh 30.39 in1029.1 mb 0.00 in0.0 mm 0.00 in0.0 mm 0.00 in0.0 mm
06:17 AM 30.5°F-0.8°C 20.2°F-6.6°C 65% 1.0 mph WNW1.6 kmh WNW 1.0 mph1.6 kmh 30.39 in1029.1 mb 0.00 in0.0 mm 0.00 in0.0 mm 0.00 in0.0 mm
06:22 AM 30.6°F-0.8°C 20.2°F-6.6°C 65% 1.0 mph WNW1.6 kmh WNW 1.0 mph1.6 kmh 30.40 in1029.5 mb 0.00 in0.0 mm 0.00 in0.0 mm 0.00 in0.0 mm
06:27 AM 30.6°F-0.8°C 19.9°F-6.7°C 64% Calm Calm 1.0 mph1.6 kmh 30.40 in1029.5 mb 0.00 in0.0 mm 0.00 in0.0 mm 0.00 in0.0 mm
06:32 AM 30.7°F-0.7°C 20.0°F-6.7°C 64% 1.0 mph WNW1.6 kmh WNW 1.0 mph1.6 kmh 30.40 in1029.5 mb 0.00 in0.0 mm 0.00 in0.0 mm 0.00 in0.0 mm
06:37 AM 30.6°F-0.8°C 19.9°F-6.7°C 64% 1.0 mph WNW1.6 kmh WNW 1.0 mph1.6 kmh 30.40 in1029.5 mb 0.00 in0.0 mm 0.00 in0.0 mm 0.00 in0.0 mm
06:42 AM 30.6°F-0.8°C 19.9°F-6.7°C 64% 1.0 mph WNW1.6 kmh WNW 1.0 mph1.6 kmh 30.40 in1029.5 mb 0.00 in0.0 mm 0.00 in0.0 mm 0.00 in0.0 mm
06:47 AM 30.6°F-0.8°C 19.9°F-6.7°C 64% 1.0 mph WNW1.6 kmh WNW 1.0 mph1.6 kmh 30.40 in1029.5 mb 0.00 in0.0 mm 0.00 in0.0 mm 0.00 in0.0 mm
06:52 AM 30.5°F-0.8°C 19.8°F-6.8°C 64% 1.0 mph WNW1.6 kmh WNW 1.0 mph1.6 kmh 30.41 in1029.8 mb 0.00 in0.0 mm 0.00 in0.0 mm 0.00 in0.0 mm
06:57 AM 30.5°F-0.8°C 19.8°F-6.8°C 64% 1.0 mph WNW1.6 kmh WNW 1.0 mph1.6 kmh 30.41 in1029.8 mb 0.00 in0.0 mm 0.00 in0.0 mm 0.00 in0.0 mm
07:02 AM 30.5°F-0.8°C 19.8°F-6.8°C 64% 1.0 mph WNW1.6 kmh WNW 1.0 mph1.6 kmh 30.41 in1029.8 mb 0.00 in0.0 mm 0.00 in0.0 mm 0.00 in0.0 mm
07:07 AM 30.4°F-0.9°C 19.7°F-6.8°C 64% Calm Calm 1.0 mph1.6 kmh 30.41 in1029.8 mb 0.00 in0.0 mm 0.00 in0.0 mm 0.00 in0.0 mm
07:12 AM 30.4°F-0.9°C 19.3°F-7.1°C 63% 1.0 mph WNW1.6 kmh WNW 1.0 mph1.6 kmh 30.41 in1029.8 mb 0.00 in0.0 mm 0.00 in0.0 mm 0.00 in0.0 mm
07:17 AM 30.5°F-0.8°C 19.5°F-6.9°C 63% 1.0 mph WNW1.6 kmh WNW 1.0 mph1.6 kmh 30.41 in1029.8 mb 0.00 in0.0 mm 0.00 in0.0 mm 0.00 in0.0 mm
07:22 AM 30.5°F-0.8°C 19.5°F-6.9°C 63% Calm Calm 1.0 mph1.6 kmh 30.41 in1029.8 mb 0.00 in0.0 mm 0.00 in0.0 mm 0.00 in0.0 mm
07:27 AM 30.5°F-0.8°C 19.0°F-7.2°C 62% Calm Calm 1.0 mph1.6 kmh 30.41 in1029.8 mb 0.00 in0.0 mm 0.00 in0.0 mm 0.00 in0.0 mm
07:32 AM 30.4°F-0.9°C 19.3°F-7.1°C 63% Calm Calm 1.0 mph1.6 kmh 30.41 in1029.8 mb 0.00 in0.0 mm 0.00 in0.0 mm 0.00 in0.0 mm
07:37 AM 30.1°F-1.1°C 19.4°F-7.0°C 64% Calm Calm -- 30.42 in1030.1 mb 0.00 in0.0 mm 0.00 in0.0 mm 0.00 in0.0 mm
07:42 AM 30.0°F-1.1°C 19.4°F-7.0°C 64% Calm Calm -- 30.42 in1030.1 mb 0.00 in0.0 mm 0.00 in0.0 mm 0.00 in0.0 mm
07:47 AM 30.0°F-1.1°C 19.3°F-7.1°C 64% Calm Calm -- 30.42 in1030.1 mb 0.00 in0.0 mm 0.00 in0.0 mm 0.00 in0.0 mm
07:52 AM 30.2°F-1.0°C 19.5°F-6.9°C 64% Calm Calm -- 30.42 in1030.1 mb 0.00 in0.0 mm 0.00 in0.0 mm 0.00 in0.0 mm
07:57 AM 30.5°F-0.8°C 19.8°F-6.8°C 64% Calm Calm -- 30.42 in1030.1 mb 0.00 in0.0 mm 0.00 in0.0 mm 0.00 in0.0 mm
08:02 AM 30.9°F-0.6°C 19.8°F-6.8°C 63% Calm Calm -- 30.43 in1030.5 mb 0.00 in0.0 mm 0.00 in0.0 mm 0.00 in0.0 mm
08:07 AM 31.2°F-0.4°C 19.7°F-6.8°C 62% Calm Calm 1.0 mph1.6 kmh 30.43 in1030.5 mb 0.00 in0.0 mm 0.00 in0.0 mm 0.00 in0.0 mm
08:12 AM 31.4°F-0.3°C 19.9°F-6.7°C 62% Calm Calm 1.0 mph1.6 kmh 30.43 in1030.5 mb 0.00 in0.0 mm 0.00 in0.0 mm 0.00 in0.0 mm
08:17 AM 31.6°F-0.2°C 20.1°F-6.6°C 62% Calm Calm 1.0 mph1.6 kmh 30.43 in1030.5 mb 0.00 in0.0 mm 0.00 in0.0 mm 0.00 in0.0 mm
08:22 AM 31.8°F-0.1°C 20.3°F-6.5°C 62% Calm Calm 1.0 mph1.6 kmh 30.43 in1030.5 mb 0.00 in0.0 mm 0.00 in0.0 mm 0.00 in0.0 mm
08:27 AM 32.1°F0.1°C 20.6°F-6.3°C 62% Calm Calm -- 30.44 in1030.8 mb 0.00 in0.0 mm 0.00 in0.0 mm 0.00 in0.0 mm
08:32 AM 32.7°F0.4°C 21.1°F-6.1°C 62% Calm Calm -- 30.44 in1030.8 mb 0.00 in0.0 mm 0.00 in0.0 mm 0.00 in0.0 mm
08:37 AM 33.1°F0.6°C 21.5°F-5.8°C 62% Calm Calm -- 30.44 in1030.8 mb 0.00 in0.0 mm 0.00 in0.0 mm 0.00 in0.0 mm
08:42 AM 33.9°F1.1°C 23.8°F-4.6°C 66% Calm Calm -- 30.44 in1030.8 mb 0.00 in0.0 mm 0.00 in0.0 mm 0.00 in0.0 mm
08:47 AM 33.7°F0.9°C 21.7°F-5.7°C 61% Calm Calm -- 30.44 in1030.8 mb 0.00 in0.0 mm 0.00 in0.0 mm 0.00 in0.0 mm
08:52 AM 33.8°F1.0°C 23.3°F-4.8°C 65% Calm Calm -- 30.45 in1031.2 mb 0.00 in0.0 mm 0.00 in0.0 mm 0.00 in0.0 mm
08:57 AM 34.2°F1.2°C 23.0°F-5.0°C 63% Calm Calm -- 30.45 in1031.2 mb 0.00 in0.0 mm 0.00 in0.0 mm 0.00 in0.0 mm
09:02 AM 34.5°F1.4°C 21.7°F-5.7°C 59% Calm Calm -- 30.45 in1031.2 mb 0.00 in0.0 mm 0.00 in0.0 mm 0.00 in0.0 mm
09:07 AM 34.7°F1.5°C 21.9°F-5.6°C 59% Calm Calm 1.0 mph1.6 kmh 30.46 in1031.5 mb 0.00 in0.0 mm 0.00 in0.0 mm 0.00 in0.0 mm
09:12 AM 34.7°F1.5°C 22.3°F-5.4°C 60% 1.0 mph N1.6 kmh N 1.0 mph1.6 kmh 30.45 in1031.2 mb 0.00 in0.0 mm 0.00 in0.0 mm 0.00 in0.0 mm
09:17 AM 34.7°F1.5°C 21.9°F-5.6°C 59% 1.3 mph N2.1 kmh N 2.0 mph3.2 kmh 30.46 in1031.5 mb 0.00 in0.0 mm 0.00 in0.0 mm 0.00 in0.0 mm
09:22 AM 34.8°F1.6°C 21.1°F-6.1°C 57% 2.0 mph NE3.2 kmh NE 3.0 mph4.8 kmh 30.46 in1031.5 mb 0.00 in0.0 mm 0.00 in0.0 mm 0.00 in0.0 mm
09:27 AM 34.7°F1.5°C 20.6°F-6.3°C 56% 1.6 mph NE2.6 kmh NE 3.0 mph4.8 kmh 30.46 in1031.5 mb 0.00 in0.0 mm 0.00 in0.0 mm 0.00 in0.0 mm
09:32 AM 34.6°F1.4°C 20.9°F-6.2°C 57% 1.9 mph NE3.1 kmh NE 3.0 mph4.8 kmh 30.46 in1031.5 mb 0.00 in0.0 mm 0.00 in0.0 mm 0.00 in0.0 mm
09:37 AM 34.6°F1.4°C 20.9°F-6.2°C 57% 2.7 mph NE4.3 kmh NE 4.0 mph6.4 kmh 30.46 in1031.5 mb 0.00 in0.0 mm 0.00 in0.0 mm 0.00 in0.0 mm
09:42 AM 34.6°F1.4°C 20.9°F-6.2°C 57% 2.5 mph NE4.0 kmh NE 4.0 mph6.4 kmh 30.46 in1031.5 mb 0.00 in0.0 mm 0.00 in0.0 mm 0.00 in0.0 mm
09:47 AM 34.9°F1.6°C 21.2°F-6.0°C 57% 1.5 mph NE2.4 kmh NE 4.0 mph6.4 kmh 30.46 in1031.5 mb 0.00 in0.0 mm 0.00 in0.0 mm 0.00 in0.0 mm
09:52 AM 35.5°F1.9°C 21.4°F-5.9°C 56% 1.8 mph NNE2.9 kmh NNE 4.0 mph6.4 kmh 30.46 in1031.5 mb 0.00 in0.0 mm 0.00 in0.0 mm 0.00 in0.0 mm
09:57 AM 35.8°F2.1°C 20.8°F-6.2°C 54% 1.1 mph N1.8 kmh N 4.0 mph6.4 kmh 30.47 in1031.8 mb 0.00 in0.0 mm 0.00 in0.0 mm 0.00 in0.0 mm
10:02 AM 36.2°F2.3°C 20.7°F-6.3°C 53% 2.1 mph NE3.4 kmh NE 4.0 mph6.4 kmh 30.47 in1031.8 mb 0.00 in0.0 mm 0.00 in0.0 mm 0.00 in0.0 mm
10:07 AM 36.3°F2.4°C 20.3°F-6.5°C 52% 2.0 mph NE3.2 kmh NE 4.0 mph6.4 kmh 30.47 in1031.8 mb 0.00 in0.0 mm 0.00 in0.0 mm 0.00 in0.0 mm
10:12 AM 36.6°F2.6°C 21.1°F-6.1°C 53% 2.5 mph ENE4.0 kmh ENE 4.0 mph6.4 kmh 30.47 in1031.8 mb 0.00 in0.0 mm 0.00 in0.0 mm 0.00 in0.0 mm
10:17 AM 36.9°F2.7°C 21.8°F-5.7°C 54% 1.1 mph ENE1.8 kmh ENE 4.0 mph6.4 kmh 30.47 in1031.8 mb 0.00 in0.0 mm 0.00 in0.0 mm 0.00 in0.0 mm
10:22 AM 37.4°F3.0°C 22.7°F-5.2°C 55% 1.8 mph NE2.9 kmh NE 4.0 mph6.4 kmh 30.47 in1031.8 mb 0.00 in0.0 mm 0.00 in0.0 mm 0.00 in0.0 mm
10:27 AM 37.7°F3.2°C 22.5°F-5.3°C 54% 1.8 mph ENE2.9 kmh ENE 4.0 mph6.4 kmh 30.47 in1031.8 mb 0.00 in0.0 mm 0.00 in0.0 mm 0.00 in0.0 mm
10:32 AM 37.9°F3.3°C 22.7°F-5.2°C 54% 1.0 mph NE1.6 kmh NE 4.0 mph6.4 kmh 30.47 in1031.8 mb 0.00 in0.0 mm 0.00 in0.0 mm 0.00 in0.0 mm
10:37 AM 38.5°F3.6°C 23.7°F-4.6°C 55% 1.2 mph NNW1.9 kmh NNW 3.0 mph4.8 kmh 30.47 in1031.8 mb 0.00 in0.0 mm 0.00 in0.0 mm 0.00 in0.0 mm
10:42 AM 38.7°F3.7°C 23.5°F-4.7°C 54% 2.3 mph NE3.7 kmh NE 3.0 mph4.8 kmh 30.47 in1031.8 mb 0.00 in0.0 mm 0.00 in0.0 mm 0.00 in0.0 mm
10:47 AM 38.7°F3.7°C 23.5°F-4.7°C 54% 1.4 mph E2.3 kmh E 4.0 mph6.4 kmh 30.47 in1031.8 mb 0.00 in0.0 mm 0.00 in0.0 mm 0.00 in0.0 mm
10:52 AM 39.3°F4.1°C 24.0°F-4.4°C 54% 1.5 mph N2.4 kmh N 4.0 mph6.4 kmh 30.47 in1031.8 mb 0.00 in0.0 mm 0.00 in0.0 mm 0.00 in0.0 mm
10:57 AM 39.7°F4.3°C 23.5°F-4.7°C 52% Calm Calm 4.0 mph6.4 kmh 30.47 in1031.8 mb 0.00 in0.0 mm 0.00 in0.0 mm 0.00 in0.0 mm
11:02 AM 40.1°F4.5°C 24.3°F-4.3°C 53% 1.0 mph NE1.6 kmh NE 3.0 mph4.8 kmh 30.48 in1032.2 mb 0.00 in0.0 mm 0.00 in0.0 mm 0.00 in0.0 mm
11:07 AM 40.6°F4.8°C 24.8°F-4.0°C 53% 1.0 mph N1.6 kmh N 5.0 mph8.0 kmh 30.48 in1032.2 mb 0.00 in0.0 mm 0.00 in0.0 mm 0.00 in0.0 mm
11:12 AM 40.6°F4.8°C 23.8°F-4.6°C 51% 1.0 mph NW1.6 kmh NW 5.0 mph8.0 kmh 30.47 in1031.8 mb 0.00 in0.0 mm 0.00 in0.0 mm 0.00 in0.0 mm
11:17 AM 40.9°F4.9°C 24.1°F-4.4°C 51% 1.9 mph NE3.1 kmh NE 5.0 mph8.0 kmh 30.47 in1031.8 mb 0.00 in0.0 mm 0.00 in0.0 mm 0.00 in0.0 mm
11:22 AM 41.1°F5.1°C 24.3°F-4.3°C 51% 1.0 mph ENE1.6 kmh ENE 5.0 mph8.0 kmh 30.47 in1031.8 mb 0.00 in0.0 mm 0.00 in0.0 mm 0.00 in0.0 mm
11:27 AM 41.9°F5.5°C 24.1°F-4.4°C 49% Calm Calm 3.0 mph4.8 kmh 30.47 in1031.8 mb 0.00 in0.0 mm 0.00 in0.0 mm 0.00 in0.0 mm
11:32 AM 42.7°F5.9°C 23.8°F-4.6°C 47% 1.0 mph NW1.6 kmh NW 3.0 mph4.8 kmh 30.48 in1032.2 mb 0.00 in0.0 mm 0.00 in0.0 mm 0.00 in0.0 mm
11:37 AM 43.4°F6.3°C 23.9°F-4.5°C 46% 1.1 mph S1.8 kmh S 2.0 mph3.2 kmh 30.47 in1031.8 mb 0.00 in0.0 mm 0.00 in0.0 mm 0.00 in0.0 mm
11:42 AM 43.8°F6.6°C 23.8°F-4.6°C 45% 1.6 mph NE2.6 kmh NE 3.0 mph4.8 kmh 30.47 in1031.8 mb 0.00 in0.0 mm 0.00 in0.0 mm 0.00 in0.0 mm
11:47 AM 43.8°F6.6°C 23.7°F-4.6°C 45% 1.2 mph WSW1.9 kmh WSW 3.0 mph4.8 kmh 30.47 in1031.8 mb 0.00 in0.0 mm 0.00 in0.0 mm 0.00 in0.0 mm
11:52 AM 44.2°F6.8°C 23.0°F-5.0°C 43% 1.1 mph SW1.8 kmh SW 3.0 mph4.8 kmh 30.47 in1031.8 mb 0.00 in0.0 mm 0.00 in0.0 mm 0.00 in0.0 mm
11:57 AM 44.6°F7.0°C 24.5°F-4.2°C 45% 2.1 mph NE3.4 kmh NE 4.0 mph6.4 kmh 30.47 in1031.8 mb 0.00 in0.0 mm 0.00 in0.0 mm 0.00 in0.0 mm
12:02 PM 44.3°F6.8°C 23.6°F-4.7°C 44% 1.0 mph NNE1.6 kmh NNE 4.0 mph6.4 kmh 30.47 in1031.8 mb 0.00 in0.0 mm 0.00 in0.0 mm 0.00 in0.0 mm
12:07 PM 44.4°F6.9°C 23.8°F-4.6°C 44% 1.9 mph E3.1 kmh E 4.0 mph6.4 kmh 30.47 in1031.8 mb 0.00 in0.0 mm 0.00 in0.0 mm 0.00 in0.0 mm
12:12 PM 44.4°F6.9°C 24.3°F-4.3°C 45% 1.4 mph ESE2.3 kmh ESE 4.0 mph6.4 kmh 30.47 in1031.8 mb 0.00 in0.0 mm 0.00 in0.0 mm 0.00 in0.0 mm
12:17 PM 44.7°F7.1°C 24.1°F-4.4°C 44% 1.0 mph SE1.6 kmh SE 3.0 mph4.8 kmh 30.47 in1031.8 mb 0.00 in0.0 mm 0.00 in0.0 mm 0.00 in0.0 mm
12:22 PM 45.4°F7.4°C 24.6°F-4.1°C 44% Calm Calm 3.0 mph4.8 kmh 30.46 in1031.5 mb 0.00 in0.0 mm 0.00 in0.0 mm 0.00 in0.0 mm
12:27 PM 45.6°F7.6°C 23.7°F-4.6°C 42% Calm Calm 3.0 mph4.8 kmh 30.46 in1031.5 mb 0.00 in0.0 mm 0.00 in0.0 mm 0.00 in0.0 mm
12:32 PM 45.7°F7.6°C 23.7°F-4.6°C 42% 1.3 mph WSW2.1 kmh WSW 3.0 mph4.8 kmh 30.45 in1031.2 mb 0.00 in0.0 mm 0.00 in0.0 mm 0.00 in0.0 mm
12:37 PM 45.9°F7.7°C 23.9°F-4.5°C 42% 1.0 mph WSW1.6 kmh WSW 3.0 mph4.8 kmh 30.45 in1031.2 mb 0.00 in0.0 mm 0.00 in0.0 mm 0.00 in0.0 mm
12:42 PM 46.4°F8.0°C 25.0°F-3.9°C 43% Calm Calm 4.0 mph6.4 kmh 30.45 in1031.2 mb 0.00 in0.0 mm 0.00 in0.0 mm 0.00 in0.0 mm
12:47 PM 47.3°F8.5°C 25.2°F-3.8°C 42% 1.0 mph SE1.6 kmh SE 4.0 mph6.4 kmh 30.45 in1031.2 mb 0.00 in0.0 mm 0.00 in0.0 mm 0.00 in0.0 mm
12:52 PM 48.0°F8.9°C 25.4°F-3.7°C 41% 1.0 mph ESE1.6 kmh ESE 4.0 mph6.4 kmh 30.44 in1030.8 mb 0.00 in0.0 mm 0.00 in0.0 mm 0.00 in0.0 mm
12:57 PM 47.5°F8.6°C 24.2°F-4.3°C 40% 3.5 mph E5.6 kmh E 7.0 mph11.3 kmh 30.44 in1030.8 mb 0.00 in0.0 mm 0.00 in0.0 mm 0.00 in0.0 mm
01:02 PM 46.9°F8.3°C 23.6°F-4.7°C 40% 2.8 mph E4.5 kmh E 7.0 mph11.3 kmh 30.44 in1030.8 mb 0.00 in0.0 mm 0.00 in0.0 mm 0.00 in0.0 mm
01:07 PM 46.8°F8.2°C 23.5°F-4.7°C 40% 1.3 mph NNE2.1 kmh NNE 7.0 mph11.3 kmh 30.43 in1030.5 mb 0.00 in0.0 mm 0.00 in0.0 mm 0.00 in0.0 mm
01:12 PM 47.4°F8.6°C 22.8°F-5.1°C 38% 1.8 mph W2.9 kmh W 7.0 mph11.3 kmh 30.43 in1030.5 mb 0.00 in0.0 mm 0.00 in0.0 mm 0.00 in0.0 mm
01:17 PM 47.8°F8.8°C 23.2°F-4.9°C 38% 1.5 mph ESE2.4 kmh ESE 4.0 mph6.4 kmh 30.43 in1030.5 mb 0.00 in0.0 mm 0.00 in0.0 mm 0.00 in0.0 mm
01:22 PM 47.8°F8.8°C 22.6°F-5.2°C 37% 1.0 mph SW1.6 kmh SW 4.0 mph6.4 kmh 30.42 in1030.1 mb 0.00 in0.0 mm 0.00 in0.0 mm 0.00 in0.0 mm
01:27 PM 47.8°F8.8°C 22.6°F-5.2°C 37% 3.0 mph NW4.8 kmh NW 5.0 mph8.0 kmh 30.42 in1030.1 mb 0.00 in0.0 mm 0.00 in0.0 mm 0.00 in0.0 mm
01:32 PM 47.9°F8.8°C 23.5°F-4.7°C 38% 2.3 mph NW3.7 kmh NW 8.0 mph12.9 kmh 30.42 in1030.1 mb 0.00 in0.0 mm 0.00 in0.0 mm 0.00 in0.0 mm
01:37 PM 48.1°F8.9°C 23.5°F-4.7°C 38% 3.4 mph NE5.5 kmh NE 8.0 mph12.9 kmh 30.41 in1029.8 mb 0.00 in0.0 mm 0.00 in0.0 mm 0.00 in0.0 mm
01:42 PM 48.0°F8.9°C 23.4°F-4.8°C 38% 1.0 mph E1.6 kmh E 8.0 mph12.9 kmh 30.41 in1029.8 mb 0.00 in0.0 mm 0.00 in0.0 mm 0.00 in0.0 mm
01:47 PM 48.5°F9.2°C 23.2°F-4.9°C 37% 2.0 mph W3.2 kmh W 8.0 mph12.9 kmh 30.41 in1029.8 mb 0.00 in0.0 mm 0.00 in0.0 mm 0.00 in0.0 mm
01:52 PM 48.7°F9.3°C 24.0°F-4.4°C 38% 1.0 mph NW1.6 kmh NW 6.0 mph9.7 kmh 30.41 in1029.8 mb 0.00 in0.0 mm 0.00 in0.0 mm 0.00 in0.0 mm
01:57 PM 49.2°F9.6°C 24.0°F-4.4°C 37% 2.4 mph NW3.9 kmh NW 5.0 mph8.0 kmh 30.41 in1029.8 mb 0.00 in0.0 mm 0.00 in0.0 mm 0.00 in0.0 mm
02:02 PM 49.3°F9.6°C 23.2°F-4.9°C 36% 1.5 mph SW2.4 kmh SW 5.0 mph8.0 kmh 30.40 in1029.5 mb 0.00 in0.0 mm 0.00 in0.0 mm 0.00 in0.0 mm
02:07 PM 49.9°F9.9°C 23.8°F-4.6°C 36% 3.3 mph WNW5.3 kmh WNW 7.0 mph11.3 kmh 30.40 in1029.5 mb 0.00 in0.0 mm 0.00 in0.0 mm 0.00 in0.0 mm
02:12 PM 49.4°F9.7°C 22.9°F-5.1°C 35% 1.5 mph WNW2.4 kmh WNW 7.0 mph11.3 kmh 30.40 in1029.5 mb 0.00 in0.0 mm 0.00 in0.0 mm 0.00 in0.0 mm
02:17 PM 49.7°F9.8°C 23.8°F-4.6°C 36% Calm Calm 7.0 mph11.3 kmh 30.40 in1029.5 mb 0.00 in0.0 mm 0.00 in0.0 mm 0.00 in0.0 mm
02:22 PM 50.1°F10.1°C 23.9°F-4.5°C 36% 2.5 mph N4.0 kmh N 7.0 mph11.3 kmh 30.40 in1029.5 mb 0.00 in0.0 mm 0.00 in0.0 mm 0.00 in0.0 mm
02:27 PM 50.3°F10.2°C 24.1°F-4.4°C 36% 2.5 mph N4.0 kmh N 7.0 mph11.3 kmh 30.39 in1029.1 mb 0.00 in0.0 mm 0.00 in0.0 mm 0.00 in0.0 mm
02:32 PM 49.8°F9.9°C 23.0°F-5.0°C 35% 1.5 mph NE2.4 kmh NE 5.0 mph8.0 kmh 30.39 in1029.1 mb 0.00 in0.0 mm 0.00 in0.0 mm 0.00 in0.0 mm
02:37 PM 49.6°F9.8°C 22.8°F-5.1°C 35% 1.7 mph ENE2.7 kmh ENE 5.0 mph8.0 kmh 30.39 in1029.1 mb 0.00 in0.0 mm 0.00 in0.0 mm 0.00 in0.0 mm
02:42 PM 50.1°F10.1°C 23.9°F-4.5°C 36% 1.0 mph SW1.6 kmh SW 5.0 mph8.0 kmh 30.39 in1029.1 mb 0.00 in0.0 mm 0.00 in0.0 mm 0.00 in0.0 mm
02:47 PM 50.5°F10.3°C 23.6°F-4.7°C 35% 1.6 mph NNE2.6 kmh NNE 4.0 mph6.4 kmh 30.39 in1029.1 mb 0.00 in0.0 mm 0.00 in0.0 mm 0.00 in0.0 mm
02:52 PM 50.8°F10.4°C 23.9°F-4.5°C 35% 2.0 mph WNW3.2 kmh WNW 7.0 mph11.3 kmh 30.39 in1029.1 mb 0.00 in0.0 mm 0.00 in0.0 mm 0.00 in0.0 mm
02:57 PM 50.8°F10.4°C 23.9°F-4.5°C 35% 2.1 mph NW3.4 kmh NW 7.0 mph11.3 kmh 30.39 in1029.1 mb 0.00 in0.0 mm 0.00 in0.0 mm 0.00 in0.0 mm
03:02 PM 51.0°F10.6°C 24.3°F-4.3°C 35% 1.6 mph NNW2.6 kmh NNW 7.0 mph11.3 kmh 30.39 in1029.1 mb 0.00 in0.0 mm 0.00 in0.0 mm 0.00 in0.0 mm
03:07 PM 51.0°F10.6°C 24.1°F-4.4°C 35% 2.2 mph NNE3.5 kmh NNE 6.0 mph9.7 kmh 30.39 in1029.1 mb 0.00 in0.0 mm 0.00 in0.0 mm 0.00 in0.0 mm
03:12 PM 51.1°F10.6°C 24.2°F-4.3°C 35% 3.3 mph NW5.3 kmh NW 5.0 mph8.0 kmh 30.39 in1029.1 mb 0.00 in0.0 mm 0.00 in0.0 mm 0.00 in0.0 mm
03:17 PM 51.2°F10.7°C 23.5°F-4.7°C 34% 1.0 mph N1.6 kmh N 5.0 mph8.0 kmh 30.39 in1029.1 mb 0.00 in0.0 mm 0.00 in0.0 mm 0.00 in0.0 mm
03:22 PM 51.2°F10.7°C 24.2°F-4.3°C 35% 1.0 mph N1.6 kmh N 5.0 mph8.0 kmh 30.38 in1028.8 mb 0.00 in0.0 mm 0.00 in0.0 mm 0.00 in0.0 mm
03:27 PM 51.3°F10.7°C 23.6°F-4.7°C 34% 3.2 mph SW5.1 kmh SW 6.0 mph9.7 kmh 30.38 in1028.8 mb 0.00 in0.0 mm 0.00 in0.0 mm 0.00 in0.0 mm
03:32 PM 51.3°F10.7°C 23.8°F-4.6°C 34% 2.3 mph WNW3.7 kmh WNW 6.0 mph9.7 kmh 30.38 in1028.8 mb 0.00 in0.0 mm 0.00 in0.0 mm 0.00 in0.0 mm
03:37 PM 51.3°F10.7°C 23.6°F-4.7°C 34% 1.9 mph W3.1 kmh W 6.0 mph9.7 kmh 30.38 in1028.8 mb 0.00 in0.0 mm 0.00 in0.0 mm 0.00 in0.0 mm
03:42 PM 51.4°F10.8°C 23.9°F-4.5°C 34% 1.5 mph 2.4 kmh 6.0 mph9.7 kmh 30.38 in1028.8 mb 0.00 in0.0 mm 0.00 in0.0 mm 0.00 in0.0 mm
03:47 PM 51.4°F10.8°C 23.7°F-4.6°C 34% 1.8 mph NE2.9 kmh NE 5.0 mph8.0 kmh 30.38 in1028.8 mb 0.00 in0.0 mm 0.00 in0.0 mm 0.00 in0.0 mm
03:52 PM 51.3°F10.7°C 24.5°F-4.2°C 35% 1.5 mph NNE2.4 kmh NNE 4.0 mph6.4 kmh 30.38 in1028.8 mb 0.00 in0.0 mm 0.00 in0.0 mm 0.00 in0.0 mm
03:57 PM 51.4°F10.8°C 24.6°F-4.1°C 35% 1.7 mph NE2.7 kmh NE 4.0 mph6.4 kmh 30.38 in1028.8 mb 0.00 in0.0 mm 0.00 in0.0 mm 0.00 in0.0 mm
04:02 PM 51.5°F10.8°C 23.8°F-4.6°C 34% 1.6 mph NE2.6 kmh NE 4.0 mph6.4 kmh 30.37 in1028.4 mb 0.00 in0.0 mm 0.00 in0.0 mm 0.00 in0.0 mm
04:07 PM 51.7°F10.9°C 24.7°F-4.1°C 35% 1.0 mph NE1.6 kmh NE 4.0 mph6.4 kmh 30.37 in1028.4 mb 0.00 in0.0 mm 0.00 in0.0 mm 0.00 in0.0 mm
04:12 PM 52.5°F11.4°C 25.4°F-3.7°C 35% 2.5 mph WSW4.0 kmh WSW 6.0 mph9.7 kmh 30.37 in1028.4 mb 0.00 in0.0 mm 0.00 in0.0 mm 0.00 in0.0 mm
04:17 PM 52.7°F11.5°C 24.9°F-3.9°C 34% 1.3 mph WNW2.1 kmh WNW 6.0 mph9.7 kmh 30.37 in1028.4 mb 0.00 in0.0 mm 0.00 in0.0 mm 0.00 in0.0 mm
04:22 PM 52.9°F11.6°C 24.5°F-4.2°C 33% Calm Calm 6.0 mph9.7 kmh 30.37 in1028.4 mb 0.00 in0.0 mm 0.00 in0.0 mm 0.00 in0.0 mm
04:27 PM 53.1°F11.7°C 25.4°F-3.7°C 34% 3.6 mph WNW5.8 kmh WNW 6.0 mph9.7 kmh 30.37 in1028.4 mb 0.00 in0.0 mm 0.00 in0.0 mm 0.00 in0.0 mm
04:32 PM 52.5°F11.4°C 24.2°F-4.3°C 33% 1.1 mph W1.8 kmh W 6.0 mph9.7 kmh 30.37 in1028.4 mb 0.00 in0.0 mm 0.00 in0.0 mm 0.00 in0.0 mm
04:37 PM 53.0°F11.7°C 25.1°F-3.8°C 34% 1.1 mph SW1.8 kmh SW 6.0 mph9.7 kmh 30.37 in1028.4 mb 0.00 in0.0 mm 0.00 in0.0 mm 0.00 in0.0 mm
04:42 PM 53.2°F11.8°C 25.5°F-3.6°C 34% 2.0 mph W3.2 kmh W 6.0 mph9.7 kmh 30.37 in1028.4 mb 0.00 in0.0 mm 0.00 in0.0 mm 0.00 in0.0 mm
04:47 PM 52.6°F11.4°C 24.8°F-4.0°C 34% 1.8 mph SW2.9 kmh SW 6.0 mph9.7 kmh 30.38 in1028.8 mb 0.00 in0.0 mm 0.00 in0.0 mm 0.00 in0.0 mm
04:52 PM 52.8°F11.6°C 25.0°F-3.9°C 34% 2.5 mph W4.0 kmh W 6.0 mph9.7 kmh 30.38 in1028.8 mb 0.00 in0.0 mm 0.00 in0.0 mm 0.00 in0.0 mm
04:57 PM 52.5°F11.4°C 24.7°F-4.1°C 34% 1.8 mph NW2.9 kmh NW 6.0 mph9.7 kmh 30.38 in1028.8 mb 0.00 in0.0 mm 0.00 in0.0 mm 0.00 in0.0 mm
05:02 PM 52.4°F11.3°C 24.6°F-4.1°C 34% Calm Calm 6.0 mph9.7 kmh 30.37 in1028.4 mb 0.00 in0.0 mm 0.00 in0.0 mm 0.00 in0.0 mm
05:07 PM 52.9°F11.6°C 25.0°F-3.9°C 34% 1.2 mph WSW1.9 kmh WSW 4.0 mph6.4 kmh 30.37 in1028.4 mb 0.00 in0.0 mm 0.00 in0.0 mm 0.00 in0.0 mm
05:12 PM 52.6°F11.4°C 25.0°F-3.9°C 34% 1.4 mph W2.3 kmh W 4.0 mph6.4 kmh 30.38 in1028.8 mb 0.00 in0.0 mm 0.00 in0.0 mm 0.00 in0.0 mm
05:17 PM 52.6°F11.4°C 24.8°F-4.0°C 34% 1.0 mph WSW1.6 kmh WSW 3.0 mph4.8 kmh 30.38 in1028.8 mb 0.00 in0.0 mm 0.00 in0.0 mm 0.00 in0.0 mm
05:22 PM 52.9°F11.6°C 25.3°F-3.7°C 34% 2.1 mph SW3.4 kmh SW 3.0 mph4.8 kmh 30.37 in1028.4 mb 0.00 in0.0 mm 0.00 in0.0 mm 0.00 in0.0 mm
05:27 PM 53.0°F11.7°C 24.4°F-4.2°C 33% 1.0 mph SW1.6 kmh SW 3.0 mph4.8 kmh 30.37 in1028.4 mb 0.00 in0.0 mm 0.00 in0.0 mm 0.00 in0.0 mm
05:32 PM 53.2°F11.8°C 25.5°F-3.6°C 34% Calm Calm 3.0 mph4.8 kmh 30.37 in1028.4 mb 0.00 in0.0 mm 0.00 in0.0 mm 0.00 in0.0 mm
05:37 PM 52.8°F11.6°C 25.2°F-3.8°C 34% Calm Calm 3.0 mph4.8 kmh 30.37 in1028.4 mb 0.00 in0.0 mm 0.00 in0.0 mm 0.00 in0.0 mm
05:42 PM 52.6°F11.4°C 24.8°F-4.0°C 34% Calm Calm 1.0 mph1.6 kmh 30.37 in1028.4 mb 0.00 in0.0 mm 0.00 in0.0 mm 0.00 in0.0 mm
05:47 PM 52.3°F11.3°C 24.5°F-4.2°C 34% Calm Calm 1.0 mph1.6 kmh 30.37 in1028.4 mb 0.00 in0.0 mm 0.00 in0.0 mm 0.00 in0.0 mm
05:52 PM 51.6°F10.9°C 24.6°F-4.1°C 35% Calm Calm 1.0 mph1.6 kmh 30.37 in1028.4 mb 0.00 in0.0 mm 0.00 in0.0 mm 0.00 in0.0 mm
05:57 PM 51.2°F10.7°C 24.2°F-4.3°C 35% Calm Calm -- 30.37 in1028.4 mb 0.00 in0.0 mm 0.00 in0.0 mm 0.00 in0.0 mm
06:02 PM 50.7°F10.4°C 24.5°F-4.2°C 36% Calm Calm -- 30.37 in1028.4 mb 0.00 in0.0 mm 0.00 in0.0 mm 0.00 in0.0 mm
06:07 PM 50.3°F10.2°C 24.1°F-4.4°C 36% Calm Calm -- 30.37 in1028.4 mb 0.00 in0.0 mm 0.00 in0.0 mm 0.00 in0.0 mm
06:12 PM 50.0°F10.0°C 24.5°F-4.2°C 37% Calm Calm -- 30.37 in1028.4 mb 0.00 in0.0 mm 0.00 in0.0 mm 0.00 in0.0 mm
06:17 PM 49.7°F9.8°C 24.3°F-4.3°C 37% Calm Calm -- 30.37 in1028.4 mb 0.00 in0.0 mm 0.00 in0.0 mm 0.00 in0.0 mm
06:22 PM 49.4°F9.7°C 25.3°F-3.7°C 39% Calm Calm -- 30.37 in1028.4 mb 0.00 in0.0 mm 0.00 in0.0 mm 0.00 in0.0 mm
06:27 PM 49.5°F9.7°C 25.4°F-3.7°C 39% Calm Calm -- 30.37 in1028.4 mb 0.00 in0.0 mm 0.00 in0.0 mm 0.00 in0.0 mm
06:32 PM 49.3°F9.6°C 25.2°F-3.8°C 39% Calm Calm -- 30.37 in1028.4 mb 0.00 in0.0 mm 0.00 in0.0 mm 0.00 in0.0 mm
06:37 PM 49.2°F9.6°C 25.1°F-3.8°C 39% 1.0 mph ESE1.6 kmh ESE 1.0 mph1.6 kmh 30.37 in1028.4 mb 0.00 in0.0 mm 0.00 in0.0 mm 0.00 in0.0 mm
06:42 PM 49.0°F9.4°C 25.5°F-3.6°C 40% 1.0 mph E1.6 kmh E 1.0 mph1.6 kmh 30.37 in1028.4 mb 0.00 in0.0 mm 0.00 in0.0 mm 0.00 in0.0 mm
06:47 PM 48.7°F9.3°C 25.9°F-3.4°C 41% Calm Calm 1.0 mph1.6 kmh 30.37 in1028.4 mb 0.00 in0.0 mm 0.00 in0.0 mm 0.00 in0.0 mm
06:52 PM 48.5°F9.2°C 25.8°F-3.4°C 41% 1.2 mph E1.9 kmh E 2.0 mph3.2 kmh 30.37 in1028.4 mb 0.00 in0.0 mm 0.00 in0.0 mm 0.00 in0.0 mm
06:57 PM 48.3°F9.1°C 25.5°F-3.6°C 41% 1.0 mph ESE1.6 kmh ESE 2.0 mph3.2 kmh 30.37 in1028.4 mb 0.00 in0.0 mm 0.00 in0.0 mm 0.00 in0.0 mm
07:02 PM 48.0°F8.9°C 25.8°F-3.4°C 42% 1.0 mph ESE1.6 kmh ESE 2.0 mph3.2 kmh 30.37 in1028.4 mb 0.00 in0.0 mm 0.00 in0.0 mm 0.00 in0.0 mm
07:07 PM 47.7°F8.7°C 25.0°F-3.9°C 41% 1.1 mph SE1.8 kmh SE 2.0 mph3.2 kmh 30.37 in1028.4 mb 0.00 in0.0 mm 0.00 in0.0 mm 0.00 in0.0 mm
07:12 PM 47.6°F8.7°C 25.0°F-3.9°C 41% 1.0 mph ESE1.6 kmh ESE 2.0 mph3.2 kmh 30.37 in1028.4 mb 0.00 in0.0 mm 0.00 in0.0 mm 0.00 in0.0 mm
07:17 PM 47.3°F8.5°C 25.2°F-3.8°C 42% 1.0 mph ESE1.6 kmh ESE 2.0 mph3.2 kmh 30.37 in1028.4 mb 0.00 in0.0 mm 0.00 in0.0 mm 0.00 in0.0 mm
07:22 PM 47.2°F8.4°C 25.1°F-3.8°C 42% 1.0 mph SE1.6 kmh SE 3.0 mph4.8 kmh 30.37 in1028.4 mb 0.00 in0.0 mm 0.00 in0.0 mm 0.00 in0.0 mm
07:27 PM 47.1°F8.4°C 25.0°F-3.9°C 42% Calm Calm 3.0 mph4.8 kmh 30.38 in1028.8 mb 0.00 in0.0 mm 0.00 in0.0 mm 0.00 in0.0 mm
07:32 PM 46.9°F8.3°C 24.8°F-4.0°C 42% 1.0 mph SE1.6 kmh SE 3.0 mph4.8 kmh 30.38 in1028.8 mb 0.00 in0.0 mm 0.00 in0.0 mm 0.00 in0.0 mm
07:37 PM 46.8°F8.2°C 24.7°F-4.1°C 42% 1.2 mph SE1.9 kmh SE 3.0 mph4.8 kmh 30.38 in1028.8 mb 0.00 in0.0 mm 0.00 in0.0 mm 0.00 in0.0 mm
07:42 PM 46.8°F8.2°C 25.3°F-3.7°C 43% 1.7 mph ESE2.7 kmh ESE 3.0 mph4.8 kmh 30.38 in1028.8 mb 0.00 in0.0 mm 0.00 in0.0 mm 0.00 in0.0 mm
07:47 PM 46.7°F8.2°C 25.2°F-3.8°C 43% 1.4 mph SE2.3 kmh SE 3.0 mph4.8 kmh 30.38 in1028.8 mb 0.00 in0.0 mm 0.00 in0.0 mm 0.00 in0.0 mm
07:52 PM 46.7°F8.2°C 25.2°F-3.8°C 43% 1.3 mph SE2.1 kmh SE 3.0 mph4.8 kmh 30.38 in1028.8 mb 0.00 in0.0 mm 0.00 in0.0 mm 0.00 in0.0 mm
07:57 PM 46.7°F8.2°C 25.2°F-3.8°C 43% 1.2 mph ESE1.9 kmh ESE 3.0 mph4.8 kmh 30.38 in1028.8 mb 0.00 in0.0 mm 0.00 in0.0 mm 0.00 in0.0 mm
08:02 PM 46.7°F8.2°C 24.7°F-4.1°C 42% 1.2 mph SE1.9 kmh SE 3.0 mph4.8 kmh 30.38 in1028.8 mb 0.00 in0.0 mm 0.00 in0.0 mm 0.00 in0.0 mm
08:07 PM 46.6°F8.1°C 25.3°F-3.7°C 43% 1.7 mph ESE2.7 kmh ESE 5.0 mph8.0 kmh 30.37 in1028.4 mb 0.00 in0.0 mm 0.00 in0.0 mm 0.00 in0.0 mm
08:12 PM 46.5°F8.1°C 25.0°F-3.9°C 43% 1.6 mph E2.6 kmh E 5.0 mph8.0 kmh 30.37 in1028.4 mb 0.00 in0.0 mm 0.00 in0.0 mm 0.00 in0.0 mm
08:17 PM 46.4°F8.0°C 25.0°F-3.9°C 43% 1.2 mph ESE1.9 kmh ESE 5.0 mph8.0 kmh 30.37 in1028.4 mb 0.00 in0.0 mm 0.00 in0.0 mm 0.00 in0.0 mm
08:22 PM 46.3°F7.9°C 25.0°F-3.9°C 43% 1.5 mph ESE2.4 kmh ESE 5.0 mph8.0 kmh 30.37 in1028.4 mb 0.00 in0.0 mm 0.00 in0.0 mm 0.00 in0.0 mm
08:27 PM 46.2°F7.9°C 24.8°F-4.0°C 43% 1.7 mph ESE2.7 kmh ESE 3.0 mph4.8 kmh 30.37 in1028.4 mb 0.00 in0.0 mm 0.00 in0.0 mm 0.00 in0.0 mm
08:32 PM 46.1°F7.8°C 24.7°F-4.1°C 43% 1.2 mph ESE1.9 kmh ESE 3.0 mph4.8 kmh 30.37 in1028.4 mb 0.00 in0.0 mm 0.00 in0.0 mm 0.00 in0.0 mm
08:37 PM 45.9°F7.7°C 25.1°F-3.8°C 44% 1.1 mph ESE1.8 kmh ESE 3.0 mph4.8 kmh 30.37 in1028.4 mb 0.00 in0.0 mm 0.00 in0.0 mm 0.00 in0.0 mm
08:42 PM 45.7°F7.6°C 24.9°F-3.9°C 44% 1.5 mph SE2.4 kmh SE 3.0 mph4.8 kmh 30.37 in1028.4 mb 0.00 in0.0 mm 0.00 in0.0 mm 0.00 in0.0 mm
08:47 PM 45.6°F7.6°C 24.8°F-4.0°C 44% 1.0 mph SE1.6 kmh SE 3.0 mph4.8 kmh 30.37 in1028.4 mb 0.00 in0.0 mm 0.00 in0.0 mm 0.00 in0.0 mm
08:52 PM 45.6°F7.6°C 24.9°F-3.9°C 44% 1.1 mph SE1.8 kmh SE 2.0 mph3.2 kmh 30.37 in1028.4 mb 0.00 in0.0 mm 0.00 in0.0 mm 0.00 in0.0 mm
08:57 PM 45.6°F7.6°C 24.8°F-4.0°C 44% 1.0 mph SE1.6 kmh SE 2.0 mph3.2 kmh 30.37 in1028.4 mb 0.00 in0.0 mm 0.00 in0.0 mm 0.00 in0.0 mm
09:02 PM 45.7°F7.6°C 24.9°F-3.9°C 44% 1.0 mph ESE1.6 kmh ESE 2.0 mph3.2 kmh 30.38 in1028.8 mb 0.00 in0.0 mm 0.00 in0.0 mm 0.00 in0.0 mm
09:07 PM 45.8°F7.7°C 25.1°F-3.8°C 44% 1.3 mph SE2.1 kmh SE 2.0 mph3.2 kmh 30.38 in1028.8 mb 0.00 in0.0 mm 0.00 in0.0 mm 0.00 in0.0 mm
09:12 PM 45.9°F7.7°C 25.1°F-3.8°C 44% 1.6 mph SE2.6 kmh SE 3.0 mph4.8 kmh 30.38 in1028.8 mb 0.00 in0.0 mm 0.00 in0.0 mm 0.00 in0.0 mm
09:17 PM 45.9°F7.7°C 25.2°F-3.8°C 44% 1.8 mph SE2.9 kmh SE 3.0 mph4.8 kmh 30.37 in1028.4 mb 0.00 in0.0 mm 0.00 in0.0 mm 0.00 in0.0 mm
09:22 PM 45.9°F7.7°C 25.2°F-3.8°C 44% 1.5 mph SE2.4 kmh SE 3.0 mph4.8 kmh 30.37 in1028.4 mb 0.00 in0.0 mm 0.00 in0.0 mm 0.00 in0.0 mm
09:27 PM 46.0°F7.8°C 25.2°F-3.8°C 44% 1.8 mph SE2.9 kmh SE 3.0 mph4.8 kmh 30.38 in1028.8 mb 0.00 in0.0 mm 0.00 in0.0 mm 0.00 in0.0 mm
09:32 PM 46.1°F7.8°C 24.8°F-4.0°C 43% 2.0 mph SE3.2 kmh SE 4.0 mph6.4 kmh 30.38 in1028.8 mb 0.00 in0.0 mm 0.00 in0.0 mm 0.00 in0.0 mm
09:37 PM 46.1°F7.8°C 24.7°F-4.1°C 43% 1.2 mph SE1.9 kmh SE 4.0 mph6.4 kmh 30.38 in1028.8 mb 0.00 in0.0 mm 0.00 in0.0 mm 0.00 in0.0 mm
09:42 PM 46.1°F7.8°C 24.7°F-4.1°C 43% 1.0 mph SE1.6 kmh SE 4.0 mph6.4 kmh 30.39 in1029.1 mb 0.00 in0.0 mm 0.00 in0.0 mm 0.00 in0.0 mm
09:47 PM 45.9°F7.7°C 24.5°F-4.2°C 43% 1.0 mph SE1.6 kmh SE 3.0 mph4.8 kmh 30.39 in1029.1 mb 0.00 in0.0 mm 0.00 in0.0 mm 0.00 in0.0 mm
09:52 PM 45.6°F7.6°C 24.9°F-3.9°C 44% 1.0 mph SE1.6 kmh SE 3.0 mph4.8 kmh 30.39 in1029.1 mb 0.00 in0.0 mm 0.00 in0.0 mm 0.00 in0.0 mm
09:57 PM 45.4°F7.4°C 24.6°F-4.1°C 44% 1.4 mph SE2.3 kmh SE 3.0 mph4.8 kmh 30.39 in1029.1 mb 0.00 in0.0 mm 0.00 in0.0 mm 0.00 in0.0 mm
10:03 PM 45.0°F7.2°C 24.8°F-4.0°C 45% Calm Calm 3.0 mph4.8 kmh 30.39 in1029.1 mb 0.00 in0.0 mm 0.00 in0.0 mm 0.00 in0.0 mm
10:08 PM 44.8°F7.1°C 24.6°F-4.1°C 45% Calm Calm 3.0 mph4.8 kmh 30.39 in1029.1 mb 0.00 in0.0 mm 0.00 in0.0 mm 0.00 in0.0 mm
10:12 PM 44.6°F7.0°C 24.4°F-4.2°C 45% 1.0 mph ESE1.6 kmh ESE 3.0 mph4.8 kmh 30.39 in1029.1 mb 0.00 in0.0 mm 0.00 in0.0 mm 0.00 in0.0 mm
10:17 PM 44.5°F6.9°C 24.5°F-4.2°C 45% 1.4 mph SE2.3 kmh SE 2.0 mph3.2 kmh 30.39 in1029.1 mb 0.00 in0.0 mm 0.00 in0.0 mm 0.00 in0.0 mm
10:23 PM 44.2°F6.8°C 24.6°F-4.1°C 46% 1.0 mph SE1.6 kmh SE 2.0 mph3.2 kmh 30.39 in1029.1 mb 0.00 in0.0 mm 0.00 in0.0 mm 0.00 in0.0 mm
10:28 PM 44.1°F6.7°C 25.1°F-3.8°C 47% Calm Calm 2.0 mph3.2 kmh 30.39 in1029.1 mb 0.00 in0.0 mm 0.00 in0.0 mm 0.00 in0.0 mm
10:33 PM 44.0°F6.7°C 24.4°F-4.2°C 46% Calm Calm 2.0 mph3.2 kmh 30.39 in1029.1 mb 0.00 in0.0 mm 0.00 in0.0 mm 0.00 in0.0 mm
10:38 PM 43.9°F6.6°C 24.9°F-3.9°C 47% 1.2 mph ESE1.9 kmh ESE 2.0 mph3.2 kmh 30.39 in1029.1 mb 0.00 in0.0 mm 0.00 in0.0 mm 0.00 in0.0 mm
10:43 PM 43.9°F6.6°C 24.9°F-3.9°C 47% 1.1 mph ESE1.8 kmh ESE 2.0 mph3.2 kmh 30.39 in1029.1 mb 0.00 in0.0 mm 0.00 in0.0 mm 0.00 in0.0 mm
10:48 PM 43.9°F6.6°C 24.9°F-3.9°C 47% 1.0 mph ESE1.6 kmh ESE 2.0 mph3.2 kmh 30.39 in1029.1 mb 0.00 in0.0 mm 0.00 in0.0 mm 0.00 in0.0 mm
10:53 PM 43.8°F6.6°C 24.9°F-3.9°C 47% Calm Calm 2.0 mph3.2 kmh 30.39 in1029.1 mb 0.00 in0.0 mm 0.00 in0.0 mm 0.00 in0.0 mm
10:58 PM 43.8°F6.6°C 25.3°F-3.7°C 48% Calm Calm 2.0 mph3.2 kmh 30.39 in1029.1 mb 0.00 in0.0 mm 0.00 in0.0 mm 0.00 in0.0 mm
11:02 PM 43.7°F6.5°C 25.2°F-3.8°C 48% Calm Calm 1.0 mph1.6 kmh 30.39 in1029.1 mb 0.00 in0.0 mm 0.00 in0.0 mm 0.00 in0.0 mm
11:08 PM 43.7°F6.5°C 25.2°F-3.8°C 48% Calm Calm 1.0 mph1.6 kmh 30.39 in1029.1 mb 0.00 in0.0 mm 0.00 in0.0 mm 0.00 in0.0 mm
11:13 PM 43.0°F6.1°C 25.6°F-3.6°C 50% Calm Calm 1.0 mph1.6 kmh 30.39 in1029.1 mb 0.00 in0.0 mm 0.00 in0.0 mm 0.00 in0.0 mm
11:18 PM 42.6°F5.9°C 24.7°F-4.1°C 49% Calm Calm 1.0 mph1.6 kmh 30.39 in1029.1 mb 0.00 in0.0 mm 0.00 in0.0 mm 0.00 in0.0 mm
11:23 PM 42.9°F6.1°C 25.0°F-3.9°C 49% 1.2 mph SE1.9 kmh SE 2.0 mph3.2 kmh 30.39 in1029.1 mb 0.00 in0.0 mm 0.00 in0.0 mm 0.00 in0.0 mm
11:28 PM 43.0°F6.1°C 25.1°F-3.8°C 49% 1.1 mph SE1.8 kmh SE 3.0 mph4.8 kmh 30.38 in1028.8 mb 0.00 in0.0 mm 0.00 in0.0 mm 0.00 in0.0 mm
11:33 PM 42.9°F6.1°C 25.0°F-3.9°C 49% 1.2 mph SE1.9 kmh SE 3.0 mph4.8 kmh 30.38 in1028.8 mb 0.00 in0.0 mm 0.00 in0.0 mm 0.00 in0.0 mm
11:38 PM 42.8°F6.0°C 25.4°F-3.7°C 50% 1.1 mph SE1.8 kmh SE 3.0 mph4.8 kmh 30.38 in1028.8 mb 0.00 in0.0 mm 0.00 in0.0 mm 0.00 in0.0 mm
11:43 PM 42.6°F5.9°C 25.2°F-3.8°C 50% 1.4 mph SE2.3 kmh SE 3.0 mph4.8 kmh 30.38 in1028.8 mb 0.00 in0.0 mm 0.00 in0.0 mm 0.00 in0.0 mm
11:48 PM 42.7°F5.9°C 25.3°F-3.7°C 50% 1.0 mph SE1.6 kmh SE 3.0 mph4.8 kmh 30.38 in1028.8 mb 0.00 in0.0 mm 0.00 in0.0 mm 0.00 in0.0 mm
11:53 PM 42.6°F5.9°C 24.7°F-4.1°C 49% Calm Calm 4.0 mph6.4 kmh 30.38 in1028.8 mb 0.00 in0.0 mm 0.00 in0.0 mm 0.00 in0.0 mm
11:58 PM 42.7°F5.9°C 24.8°F-4.0°C 49% 1.3 mph SE2.1 kmh SE 4.0 mph6.4 kmh 30.38 in1028.8 mb 0.00 in0.0 mm 0.00 in0.0 mm 0.00 in0.0 mm